sensor_id;sensor_type;location;lat;lon;timestamp;P1;durP1;ratioP1;P2;durP2;ratioP2
562;SDS011;266;49.514;8.294;2024-01-06T00:02:16;3.43;;;1.90;;
562;SDS011;266;49.514;8.294;2024-01-06T00:04:44;1.90;;;1.40;;
562;SDS011;266;49.514;8.294;2024-01-06T00:07:14;2.73;;;1.30;;
562;SDS011;266;49.514;8.294;2024-01-06T00:09:42;2.03;;;1.77;;
562;SDS011;266;49.514;8.294;2024-01-06T00:12:10;2.80;;;1.87;;
562;SDS011;266;49.514;8.294;2024-01-06T00:14:38;3.50;;;2.33;;
562;SDS011;266;49.514;8.294;2024-01-06T00:17:10;2.00;;;1.70;;
562;SDS011;266;49.514;8.294;2024-01-06T00:19:38;5.30;;;1.73;;
562;SDS011;266;49.514;8.294;2024-01-06T00:22:06;2.63;;;2.30;;
562;SDS011;266;49.514;8.294;2024-01-06T00:24:35;2.10;;;1.90;;
562;SDS011;266;49.514;8.294;2024-01-06T00:27:03;2.43;;;2.03;;
562;SDS011;266;49.514;8.294;2024-01-06T00:29:31;3.33;;;1.90;;
562;SDS011;266;49.514;8.294;2024-01-06T00:32:00;4.50;;;2.30;;
562;SDS011;266;49.514;8.294;2024-01-06T00:34:27;2.30;;;1.93;;
562;SDS011;266;49.514;8.294;2024-01-06T00:36:55;4.67;;;2.17;;
562;SDS011;266;49.514;8.294;2024-01-06T00:39:23;3.00;;;1.90;;
562;SDS011;266;49.514;8.294;2024-01-06T00:41:53;4.70;;;2.57;;
562;SDS011;266;49.514;8.294;2024-01-06T00:44:21;2.13;;;2.03;;
562;SDS011;266;49.514;8.294;2024-01-06T00:46:49;2.20;;;1.67;;
562;SDS011;266;49.514;8.294;2024-01-06T00:49:17;1.80;;;1.70;;
562;SDS011;266;49.514;8.294;2024-01-06T00:51:45;5.23;;;1.83;;
562;SDS011;266;49.514;8.294;2024-01-06T00:54:13;6.50;;;1.80;;
562;SDS011;266;49.514;8.294;2024-01-06T00:56:41;2.40;;;1.93;;
562;SDS011;266;49.514;8.294;2024-01-06T00:59:11;2.00;;;1.67;;
562;SDS011;266;49.514;8.294;2024-01-06T01:01:41;2.30;;;2.10;;
562;SDS011;266;49.514;8.294;2024-01-06T01:04:09;2.20;;;1.87;;
562;SDS011;266;49.514;8.294;2024-01-06T01:06:37;2.43;;;1.73;;
562;SDS011;266;49.514;8.294;2024-01-06T01:09:05;6.57;;;2.57;;
562;SDS011;266;49.514;8.294;2024-01-06T01:11:35;2.53;;;2.03;;
562;SDS011;266;49.514;8.294;2024-01-06T01:14:04;4.13;;;1.90;;
562;SDS011;266;49.514;8.294;2024-01-06T01:16:33;2.03;;;1.60;;
562;SDS011;266;49.514;8.294;2024-01-06T01:19:01;4.80;;;2.13;;
562;SDS011;266;49.514;8.294;2024-01-06T01:21:29;5.67;;;2.33;;
562;SDS011;266;49.514;8.294;2024-01-06T01:23:58;3.00;;;2.30;;
562;SDS011;266;49.514;8.294;2024-01-06T01:26:26;1.80;;;1.70;;
562;SDS011;266;49.514;8.294;2024-01-06T01:28:54;3.43;;;1.87;;
562;SDS011;266;49.514;8.294;2024-01-06T01:31:22;2.30;;;1.77;;
562;SDS011;266;49.514;8.294;2024-01-06T01:33:51;2.57;;;2.17;;
562;SDS011;266;49.514;8.294;2024-01-06T01:36:20;2.47;;;2.27;;
562;SDS011;266;49.514;8.294;2024-01-06T01:38:48;4.60;;;2.43;;
562;SDS011;266;49.514;8.294;2024-01-06T01:41:16;3.20;;;2.90;;
562;SDS011;266;49.514;8.294;2024-01-06T01:43:45;2.20;;;1.80;;
562;SDS011;266;49.514;8.294;2024-01-06T01:46:13;3.53;;;2.30;;
562;SDS011;266;49.514;8.294;2024-01-06T01:48:41;3.37;;;2.70;;
562;SDS011;266;49.514;8.294;2024-01-06T01:51:11;3.57;;;2.90;;
562;SDS011;266;49.514;8.294;2024-01-06T01:53:40;2.50;;;2.07;;
562;SDS011;266;49.514;8.294;2024-01-06T01:56:09;2.33;;;2.13;;
562;SDS011;266;49.514;8.294;2024-01-06T01:58:37;7.40;;;3.00;;
562;SDS011;266;49.514;8.294;2024-01-06T02:01:07;4.43;;;3.50;;
562;SDS011;266;49.514;8.294;2024-01-06T02:03:36;4.03;;;3.63;;
562;SDS011;266;49.514;8.294;2024-01-06T02:06:04;2.93;;;2.73;;
562;SDS011;266;49.514;8.294;2024-01-06T02:08:34;3.83;;;2.37;;
562;SDS011;266;49.514;8.294;2024-01-06T02:11:02;4.07;;;2.70;;
562;SDS011;266;49.514;8.294;2024-01-06T02:13:32;4.73;;;3.57;;
562;SDS011;266;49.514;8.294;2024-01-06T02:16:02;6.70;;;2.97;;
562;SDS011;266;49.514;8.294;2024-01-06T02:18:31;5.30;;;3.57;;
562;SDS011;266;49.514;8.294;2024-01-06T02:21:00;4.30;;;3.90;;
562;SDS011;266;49.514;8.294;2024-01-06T02:23:30;3.20;;;2.80;;
562;SDS011;266;49.514;8.294;2024-01-06T02:25:58;2.47;;;2.27;;
562;SDS011;266;49.514;8.294;2024-01-06T02:28:26;4.53;;;2.50;;
562;SDS011;266;49.514;8.294;2024-01-06T02:30:54;4.60;;;2.10;;
562;SDS011;266;49.514;8.294;2024-01-06T02:33:22;5.70;;;2.03;;
562;SDS011;266;49.514;8.294;2024-01-06T02:35:51;2.93;;;2.20;;
562;SDS011;266;49.514;8.294;2024-01-06T02:38:19;1.70;;;1.60;;
562;SDS011;266;49.514;8.294;2024-01-06T02:40:48;2.90;;;2.00;;
562;SDS011;266;49.514;8.294;2024-01-06T02:43:16;4.80;;;1.87;;
562;SDS011;266;49.514;8.294;2024-01-06T02:45:44;7.43;;;2.10;;
562;SDS011;266;49.514;8.294;2024-01-06T02:48:13;2.23;;;2.03;;
562;SDS011;266;49.514;8.294;2024-01-06T02:50:41;1.70;;;1.60;;
562;SDS011;266;49.514;8.294;2024-01-06T02:53:09;2.33;;;2.13;;
562;SDS011;266;49.514;8.294;2024-01-06T02:55:38;2.40;;;1.90;;
562;SDS011;266;49.514;8.294;2024-01-06T02:58:08;1.93;;;1.73;;
562;SDS011;266;49.514;8.294;2024-01-06T03:00:36;2.90;;;1.60;;
562;SDS011;266;49.514;8.294;2024-01-06T03:03:04;3.60;;;2.90;;
562;SDS011;266;49.514;8.294;2024-01-06T03:05:32;3.43;;;2.37;;
562;SDS011;266;49.514;8.294;2024-01-06T03:08:00;6.10;;;2.30;;
562;SDS011;266;49.514;8.294;2024-01-06T03:10:28;3.57;;;2.00;;
562;SDS011;266;49.514;8.294;2024-01-06T03:12:55;1.83;;;1.73;;
562;SDS011;266;49.514;8.294;2024-01-06T03:15:25;1.87;;;1.70;;
562;SDS011;266;49.514;8.294;2024-01-06T03:17:53;4.03;;;2.50;;
562;SDS011;266;49.514;8.294;2024-01-06T03:20:21;2.90;;;2.30;;
562;SDS011;266;49.514;8.294;2024-01-06T03:22:49;2.87;;;2.43;;
562;SDS011;266;49.514;8.294;2024-01-06T03:25:17;3.43;;;2.00;;
562;SDS011;266;49.514;8.294;2024-01-06T03:27:45;2.20;;;1.90;;
562;SDS011;266;49.514;8.294;2024-01-06T03:30:13;4.33;;;2.00;;
562;SDS011;266;49.514;8.294;2024-01-06T03:32:42;4.70;;;1.60;;
562;SDS011;266;49.514;8.294;2024-01-06T03:35:11;1.90;;;1.80;;
562;SDS011;266;49.514;8.294;2024-01-06T03:37:39;2.83;;;2.37;;
562;SDS011;266;49.514;8.294;2024-01-06T03:40:07;2.20;;;1.47;;
562;SDS011;266;49.514;8.294;2024-01-06T03:42:36;2.00;;;1.80;;
562;SDS011;266;49.514;8.294;2024-01-06T03:45:04;2.57;;;1.57;;
562;SDS011;266;49.514;8.294;2024-01-06T03:47:33;10.43;;;2.23;;
562;SDS011;266;49.514;8.294;2024-01-06T03:50:03;1.80;;;1.67;;
562;SDS011;266;49.514;8.294;2024-01-06T03:52:31;3.33;;;1.90;;
562;SDS011;266;49.514;8.294;2024-01-06T03:54:59;3.97;;;3.67;;
562;SDS011;266;49.514;8.294;2024-01-06T03:57:27;1.50;;;1.40;;
562;SDS011;266;49.514;8.294;2024-01-06T03:59:55;1.53;;;1.43;;
562;SDS011;266;49.514;8.294;2024-01-06T04:02:23;1.57;;;1.47;;
562;SDS011;266;49.514;8.294;2024-01-06T04:04:51;2.73;;;2.53;;
562;SDS011;266;49.514;8.294;2024-01-06T04:07:20;1.63;;;1.20;;
562;SDS011;266;49.514;8.294;2024-01-06T04:09:48;1.77;;;1.63;;
562;SDS011;266;49.514;8.294;2024-01-06T04:12:16;1.83;;;1.73;;
562;SDS011;266;49.514;8.294;2024-01-06T04:14:45;2.23;;;1.60;;
562;SDS011;266;49.514;8.294;2024-01-06T04:17:13;1.70;;;1.60;;
562;SDS011;266;49.514;8.294;2024-01-06T04:19:41;1.70;;;1.60;;
562;SDS011;266;49.514;8.294;2024-01-06T04:22:09;2.47;;;1.73;;
562;SDS011;266;49.514;8.294;2024-01-06T04:24:38;1.53;;;1.43;;
562;SDS011;266;49.514;8.294;2024-01-06T04:27:07;2.00;;;1.90;;
562;SDS011;266;49.514;8.294;2024-01-06T04:29:36;1.53;;;1.43;;
562;SDS011;266;49.514;8.294;2024-01-06T04:32:05;3.47;;;1.43;;
562;SDS011;266;49.514;8.294;2024-01-06T04:34:34;1.87;;;1.77;;
562;SDS011;266;49.514;8.294;2024-01-06T04:37:03;2.40;;;1.83;;
562;SDS011;266;49.514;8.294;2024-01-06T04:39:31;2.13;;;1.67;;
562;SDS011;266;49.514;8.294;2024-01-06T04:42:04;3.60;;;1.80;;
562;SDS011;266;49.514;8.294;2024-01-06T04:44:33;2.63;;;1.60;;
562;SDS011;266;49.514;8.294;2024-01-06T04:47:01;1.70;;;1.40;;
562;SDS011;266;49.514;8.294;2024-01-06T04:49:29;2.63;;;1.77;;
562;SDS011;266;49.514;8.294;2024-01-06T04:51:57;1.87;;;1.70;;
562;SDS011;266;49.514;8.294;2024-01-06T04:54:25;3.13;;;2.00;;
562;SDS011;266;49.514;8.294;2024-01-06T04:56:53;1.40;;;1.30;;
562;SDS011;266;49.514;8.294;2024-01-06T04:59:23;2.90;;;1.63;;
562;SDS011;266;49.514;8.294;2024-01-06T05:01:51;2.10;;;1.90;;
562;SDS011;266;49.514;8.294;2024-01-06T05:04:20;1.80;;;1.70;;
562;SDS011;266;49.514;8.294;2024-01-06T05:06:49;1.93;;;1.83;;
562;SDS011;266;49.514;8.294;2024-01-06T05:09:18;1.93;;;1.83;;
562;SDS011;266;49.514;8.294;2024-01-06T05:11:46;2.00;;;1.90;;
562;SDS011;266;49.514;8.294;2024-01-06T05:14:14;2.40;;;1.80;;
562;SDS011;266;49.514;8.294;2024-01-06T05:16:44;1.83;;;1.73;;
562;SDS011;266;49.514;8.294;2024-01-06T05:19:12;1.80;;;1.70;;
562;SDS011;266;49.514;8.294;2024-01-06T05:21:46;2.27;;;1.60;;
562;SDS011;266;49.514;8.294;2024-01-06T05:24:15;2.40;;;1.60;;
562;SDS011;266;49.514;8.294;2024-01-06T05:26:43;1.73;;;1.63;;
562;SDS011;266;49.514;8.294;2024-01-06T05:29:11;1.70;;;1.60;;
562;SDS011;266;49.514;8.294;2024-01-06T05:31:39;2.47;;;2.30;;
562;SDS011;266;49.514;8.294;2024-01-06T05:34:09;4.03;;;2.37;;
562;SDS011;266;49.514;8.294;2024-01-06T05:36:37;2.07;;;1.90;;
562;SDS011;266;49.514;8.294;2024-01-06T05:39:05;2.77;;;2.57;;
562;SDS011;266;49.514;8.294;2024-01-06T05:41:36;1.97;;;1.87;;
562;SDS011;266;49.514;8.294;2024-01-06T05:44:05;2.03;;;1.90;;
562;SDS011;266;49.514;8.294;2024-01-06T05:46:33;2.80;;;2.50;;
562;SDS011;266;49.514;8.294;2024-01-06T05:49:02;2.80;;;2.60;;
562;SDS011;266;49.514;8.294;2024-01-06T05:51:32;1.90;;;1.80;;
562;SDS011;266;49.514;8.294;2024-01-06T05:54:00;2.80;;;2.40;;
562;SDS011;266;49.514;8.294;2024-01-06T05:56:29;2.30;;;2.13;;
562;SDS011;266;49.514;8.294;2024-01-06T05:58:57;3.53;;;2.20;;
562;SDS011;266;49.514;8.294;2024-01-06T06:01:25;3.43;;;2.47;;
562;SDS011;266;49.514;8.294;2024-01-06T06:03:53;2.47;;;2.00;;
562;SDS011;266;49.514;8.294;2024-01-06T06:06:21;2.30;;;2.10;;
562;SDS011;266;49.514;8.294;2024-01-06T06:08:50;5.83;;;2.20;;
562;SDS011;266;49.514;8.294;2024-01-06T06:11:18;2.30;;;1.90;;
562;SDS011;266;49.514;8.294;2024-01-06T06:13:46;4.30;;;1.93;;
562;SDS011;266;49.514;8.294;2024-01-06T06:16:15;2.93;;;1.90;;
562;SDS011;266;49.514;8.294;2024-01-06T06:18:43;2.80;;;1.90;;
562;SDS011;266;49.514;8.294;2024-01-06T06:21:11;2.43;;;2.17;;
562;SDS011;266;49.514;8.294;2024-01-06T06:23:39;3.40;;;2.70;;
562;SDS011;266;49.514;8.294;2024-01-06T06:26:09;2.37;;;2.27;;
562;SDS011;266;49.514;8.294;2024-01-06T06:28:38;3.70;;;2.37;;
562;SDS011;266;49.514;8.294;2024-01-06T06:31:06;2.87;;;2.50;;
562;SDS011;266;49.514;8.294;2024-01-06T06:33:34;2.37;;;2.23;;
562;SDS011;266;49.514;8.294;2024-01-06T06:36:03;2.30;;;2.10;;
562;SDS011;266;49.514;8.294;2024-01-06T06:38:31;2.60;;;2.40;;
562;SDS011;266;49.514;8.294;2024-01-06T06:40:59;5.73;;;2.97;;
562;SDS011;266;49.514;8.294;2024-01-06T06:43:29;2.80;;;2.40;;
562;SDS011;266;49.514;8.294;2024-01-06T06:45:57;3.27;;;3.07;;
562;SDS011;266;49.514;8.294;2024-01-06T06:48:25;3.30;;;3.00;;
562;SDS011;266;49.514;8.294;2024-01-06T06:50:53;3.10;;;2.90;;
562;SDS011;266;49.514;8.294;2024-01-06T06:53:21;3.60;;;3.27;;
562;SDS011;266;49.514;8.294;2024-01-06T06:55:49;3.10;;;2.80;;
562;SDS011;266;49.514;8.294;2024-01-06T06:58:17;2.83;;;2.60;;
562;SDS011;266;49.514;8.294;2024-01-06T07:00:46;8.83;;;3.23;;
562;SDS011;266;49.514;8.294;2024-01-06T07:03:15;3.20;;;2.90;;
562;SDS011;266;49.514;8.294;2024-01-06T07:05:43;3.33;;;3.13;;
562;SDS011;266;49.514;8.294;2024-01-06T07:08:11;4.40;;;3.50;;
562;SDS011;266;49.514;8.294;2024-01-06T07:10:40;2.73;;;2.53;;
562;SDS011;266;49.514;8.294;2024-01-06T07:13:09;5.10;;;2.93;;
562;SDS011;266;49.514;8.294;2024-01-06T07:15:37;3.53;;;2.60;;
562;SDS011;266;49.514;8.294;2024-01-06T07:18:06;2.57;;;2.37;;
562;SDS011;266;49.514;8.294;2024-01-06T07:20:35;3.97;;;2.47;;
562;SDS011;266;49.514;8.294;2024-01-06T07:23:03;2.70;;;2.50;;
562;SDS011;266;49.514;8.294;2024-01-06T07:25:31;2.77;;;2.57;;
562;SDS011;266;49.514;8.294;2024-01-06T07:27:59;2.90;;;2.60;;
562;SDS011;266;49.514;8.294;2024-01-06T07:30:28;3.70;;;3.07;;
562;SDS011;266;49.514;8.294;2024-01-06T07:32:56;2.83;;;2.63;;
562;SDS011;266;49.514;8.294;2024-01-06T07:35:26;3.90;;;3.60;;
562;SDS011;266;49.514;8.294;2024-01-06T07:37:55;3.00;;;2.67;;
562;SDS011;266;49.514;8.294;2024-01-06T07:40:23;2.90;;;2.60;;
562;SDS011;266;49.514;8.294;2024-01-06T07:42:52;2.87;;;2.67;;
562;SDS011;266;49.514;8.294;2024-01-06T07:45:20;5.00;;;3.10;;
562;SDS011;266;49.514;8.294;2024-01-06T07:47:48;3.23;;;2.93;;
562;SDS011;266;49.514;8.294;2024-01-06T07:50:16;3.00;;;2.70;;
562;SDS011;266;49.514;8.294;2024-01-06T07:52:45;3.40;;;3.10;;
562;SDS011;266;49.514;8.294;2024-01-06T07:55:14;3.23;;;3.03;;
562;SDS011;266;49.514;8.294;2024-01-06T07:57:49;3.60;;;3.30;;
562;SDS011;266;49.514;8.294;2024-01-06T08:00:17;4.47;;;3.33;;
562;SDS011;266;49.514;8.294;2024-01-06T08:02:45;5.37;;;4.00;;
562;SDS011;266;49.514;8.294;2024-01-06T08:05:14;2.93;;;2.70;;
562;SDS011;266;49.514;8.294;2024-01-06T08:07:42;3.47;;;2.83;;
562;SDS011;266;49.514;8.294;2024-01-06T08:10:11;3.40;;;2.93;;
562;SDS011;266;49.514;8.294;2024-01-06T08:12:39;3.37;;;3.10;;
562;SDS011;266;49.514;8.294;2024-01-06T08:15:08;3.20;;;2.87;;
562;SDS011;266;49.514;8.294;2024-01-06T08:17:36;3.90;;;3.60;;
562;SDS011;266;49.514;8.294;2024-01-06T08:20:07;3.90;;;3.50;;
562;SDS011;266;49.514;8.294;2024-01-06T08:22:36;3.90;;;3.60;;
562;SDS011;266;49.514;8.294;2024-01-06T08:25:04;3.67;;;3.23;;
562;SDS011;266;49.514;8.294;2024-01-06T08:27:35;3.53;;;3.23;;
562;SDS011;266;49.514;8.294;2024-01-06T08:30:03;3.80;;;3.50;;
562;SDS011;266;49.514;8.294;2024-01-06T08:32:32;2.87;;;2.67;;
562;SDS011;266;49.514;8.294;2024-01-06T08:35:02;4.00;;;3.33;;
562;SDS011;266;49.514;8.294;2024-01-06T08:37:31;3.90;;;3.53;;
562;SDS011;266;49.514;8.294;2024-01-06T08:39:58;3.50;;;3.20;;
562;SDS011;266;49.514;8.294;2024-01-06T08:42:27;3.70;;;3.40;;
562;SDS011;266;49.514;8.294;2024-01-06T08:44:56;3.43;;;3.13;;
562;SDS011;266;49.514;8.294;2024-01-06T08:47:24;3.77;;;3.47;;
562;SDS011;266;49.514;8.294;2024-01-06T08:49:52;5.50;;;3.37;;
562;SDS011;266;49.514;8.294;2024-01-06T08:52:21;3.97;;;3.67;;
562;SDS011;266;49.514;8.294;2024-01-06T08:54:49;4.13;;;3.70;;
562;SDS011;266;49.514;8.294;2024-01-06T08:57:17;3.87;;;3.57;;
562;SDS011;266;49.514;8.294;2024-01-06T08:59:45;3.53;;;3.23;;
562;SDS011;266;49.514;8.294;2024-01-06T09:02:15;4.13;;;3.57;;
562;SDS011;266;49.514;8.294;2024-01-06T09:04:42;4.77;;;4.20;;
562;SDS011;266;49.514;8.294;2024-01-06T09:07:10;4.67;;;4.10;;
562;SDS011;266;49.514;8.294;2024-01-06T09:09:38;4.57;;;4.17;;
562;SDS011;266;49.514;8.294;2024-01-06T09:12:07;5.77;;;3.73;;
562;SDS011;266;49.514;8.294;2024-01-06T09:14:35;4.37;;;3.97;;
562;SDS011;266;49.514;8.294;2024-01-06T09:17:03;4.70;;;4.30;;
562;SDS011;266;49.514;8.294;2024-01-06T09:19:33;4.87;;;4.30;;
562;SDS011;266;49.514;8.294;2024-01-06T09:22:01;4.30;;;3.87;;
562;SDS011;266;49.514;8.294;2024-01-06T09:24:30;8.97;;;4.43;;
562;SDS011;266;49.514;8.294;2024-01-06T09:26:59;4.63;;;4.20;;
562;SDS011;266;49.514;8.294;2024-01-06T09:29:27;5.40;;;3.97;;
562;SDS011;266;49.514;8.294;2024-01-06T09:31:55;4.43;;;4.03;;
562;SDS011;266;49.514;8.294;2024-01-06T09:34:23;5.80;;;3.83;;
562;SDS011;266;49.514;8.294;2024-01-06T09:36:53;5.17;;;4.30;;
562;SDS011;266;49.514;8.294;2024-01-06T09:39:21;4.10;;;3.70;;
562;SDS011;266;49.514;8.294;2024-01-06T09:41:49;3.73;;;3.40;;
562;SDS011;266;49.514;8.294;2024-01-06T09:44:17;4.43;;;4.13;;
562;SDS011;266;49.514;8.294;2024-01-06T09:46:45;4.43;;;4.00;;
562;SDS011;266;49.514;8.294;2024-01-06T09:49:15;4.50;;;4.10;;
562;SDS011;266;49.514;8.294;2024-01-06T09:51:45;4.77;;;4.20;;
562;SDS011;266;49.514;8.294;2024-01-06T09:54:20;5.17;;;4.17;;
562;SDS011;266;49.514;8.294;2024-01-06T09:56:51;5.47;;;4.60;;
562;SDS011;266;49.514;8.294;2024-01-06T09:59:19;6.90;;;5.10;;
562;SDS011;266;49.514;8.294;2024-01-06T10:01:47;5.27;;;4.33;;
562;SDS011;266;49.514;8.294;2024-01-06T10:04:17;5.47;;;4.97;;
562;SDS011;266;49.514;8.294;2024-01-06T10:06:49;5.50;;;4.10;;
562;SDS011;266;49.514;8.294;2024-01-06T10:09:19;7.37;;;5.20;;
562;SDS011;266;49.514;8.294;2024-01-06T10:11:54;6.00;;;4.73;;
562;SDS011;266;49.514;8.294;2024-01-06T10:14:24;5.23;;;4.73;;
562;SDS011;266;49.514;8.294;2024-01-06T10:16:52;5.70;;;4.40;;
562;SDS011;266;49.514;8.294;2024-01-06T10:19:20;4.43;;;4.03;;
562;SDS011;266;49.514;8.294;2024-01-06T10:21:50;5.13;;;4.60;;
562;SDS011;266;49.514;8.294;2024-01-06T10:24:22;6.93;;;4.47;;
562;SDS011;266;49.514;8.294;2024-01-06T10:26:51;4.87;;;4.20;;
562;SDS011;266;49.514;8.294;2024-01-06T10:29:18;3.87;;;3.50;;
562;SDS011;266;49.514;8.294;2024-01-06T10:31:46;4.27;;;3.87;;
562;SDS011;266;49.514;8.294;2024-01-06T10:34:20;6.80;;;6.20;;
562;SDS011;266;49.514;8.294;2024-01-06T10:36:49;4.83;;;4.43;;
562;SDS011;266;49.514;8.294;2024-01-06T10:39:20;4.40;;;4.00;;
562;SDS011;266;49.514;8.294;2024-01-06T10:41:49;6.10;;;4.40;;
562;SDS011;266;49.514;8.294;2024-01-06T10:44:18;8.33;;;5.00;;
562;SDS011;266;49.514;8.294;2024-01-06T10:46:46;4.53;;;4.13;;
562;SDS011;266;49.514;8.294;2024-01-06T10:49:17;3.67;;;3.20;;
562;SDS011;266;49.514;8.294;2024-01-06T10:51:48;5.23;;;4.40;;
562;SDS011;266;49.514;8.294;2024-01-06T10:54:16;7.63;;;5.63;;
562;SDS011;266;49.514;8.294;2024-01-06T10:56:47;4.90;;;4.40;;
562;SDS011;266;49.514;8.294;2024-01-06T10:59:18;5.50;;;4.53;;
562;SDS011;266;49.514;8.294;2024-01-06T11:01:51;5.17;;;4.40;;
562;SDS011;266;49.514;8.294;2024-01-06T11:04:22;6.03;;;5.30;;
562;SDS011;266;49.514;8.294;2024-01-06T11:06:51;5.50;;;4.93;;
562;SDS011;266;49.514;8.294;2024-01-06T11:09:19;4.73;;;4.00;;
562;SDS011;266;49.514;8.294;2024-01-06T11:11:53;4.33;;;3.90;;
562;SDS011;266;49.514;8.294;2024-01-06T11:14:22;6.23;;;5.20;;
562;SDS011;266;49.514;8.294;2024-01-06T11:16:51;5.50;;;5.00;;
562;SDS011;266;49.514;8.294;2024-01-06T11:22:19;6.30;;;4.00;;
562;SDS011;266;49.514;8.294;2024-01-06T11:24:55;4.53;;;4.13;;
562;SDS011;266;49.514;8.294;2024-01-06T11:27:25;4.77;;;4.00;;
562;SDS011;266;49.514;8.294;2024-01-06T11:29:57;4.83;;;4.27;;
562;SDS011;266;49.514;8.294;2024-01-06T11:32:27;6.53;;;5.17;;
562;SDS011;266;49.514;8.294;2024-01-06T11:35:04;5.27;;;4.77;;
562;SDS011;266;49.514;8.294;2024-01-06T11:37:35;3.93;;;3.57;;
562;SDS011;266;49.514;8.294;2024-01-06T11:40:08;4.87;;;3.50;;
562;SDS011;266;49.514;8.294;2024-01-06T11:42:42;4.23;;;3.93;;
562;SDS011;266;49.514;8.294;2024-01-06T11:45:11;5.27;;;4.43;;
562;SDS011;266;49.514;8.294;2024-01-06T11:47:42;4.30;;;3.77;;
562;SDS011;266;49.514;8.294;2024-01-06T11:50:16;5.20;;;4.67;;
562;SDS011;266;49.514;8.294;2024-01-06T11:52:44;4.70;;;4.30;;
562;SDS011;266;49.514;8.294;2024-01-06T11:55:12;6.57;;;4.00;;
562;SDS011;266;49.514;8.294;2024-01-06T11:57:42;6.57;;;4.20;;
562;SDS011;266;49.514;8.294;2024-01-06T12:00:11;5.00;;;4.60;;
562;SDS011;266;49.514;8.294;2024-01-06T12:02:40;4.37;;;3.83;;
562;SDS011;266;49.514;8.294;2024-01-06T12:05:12;4.93;;;4.33;;
562;SDS011;266;49.514;8.294;2024-01-06T12:07:41;4.77;;;4.30;;
562;SDS011;266;49.514;8.294;2024-01-06T12:10:09;4.40;;;4.00;;
562;SDS011;266;49.514;8.294;2024-01-06T12:12:37;3.83;;;3.53;;
562;SDS011;266;49.514;8.294;2024-01-06T12:15:06;4.43;;;4.03;;
562;SDS011;266;49.514;8.294;2024-01-06T12:17:36;4.27;;;3.80;;
562;SDS011;266;49.514;8.294;2024-01-06T12:20:09;5.10;;;4.03;;
562;SDS011;266;49.514;8.294;2024-01-06T12:22:38;3.80;;;3.50;;
562;SDS011;266;49.514;8.294;2024-01-06T12:25:07;3.30;;;3.00;;
562;SDS011;266;49.514;8.294;2024-01-06T12:27:41;4.83;;;4.10;;
562;SDS011;266;49.514;8.294;2024-01-06T12:30:14;5.80;;;3.83;;
562;SDS011;266;49.514;8.294;2024-01-06T12:32:46;5.73;;;5.00;;
562;SDS011;266;49.514;8.294;2024-01-06T12:35:15;3.93;;;3.43;;
562;SDS011;266;49.514;8.294;2024-01-06T12:37:45;5.73;;;4.20;;
562;SDS011;266;49.514;8.294;2024-01-06T12:40:13;5.80;;;4.53;;
562;SDS011;266;49.514;8.294;2024-01-06T12:42:43;5.40;;;3.93;;
562;SDS011;266;49.514;8.294;2024-01-06T12:45:13;4.73;;;4.20;;
562;SDS011;266;49.514;8.294;2024-01-06T12:47:43;5.80;;;5.20;;
562;SDS011;266;49.514;8.294;2024-01-06T12:50:11;5.20;;;4.73;;
562;SDS011;266;49.514;8.294;2024-01-06T12:52:41;6.23;;;5.50;;
562;SDS011;266;49.514;8.294;2024-01-06T12:55:08;6.07;;;5.47;;
562;SDS011;266;49.514;8.294;2024-01-06T12:57:37;6.50;;;5.10;;
562;SDS011;266;49.514;8.294;2024-01-06T13:00:06;6.67;;;5.97;;
562;SDS011;266;49.514;8.294;2024-01-06T13:02:36;9.03;;;5.47;;
562;SDS011;266;49.514;8.294;2024-01-06T13:05:04;7.17;;;6.47;;
562;SDS011;266;49.514;8.294;2024-01-06T13:07:32;5.00;;;4.60;;
562;SDS011;266;49.514;8.294;2024-01-06T13:10:00;6.17;;;5.37;;
562;SDS011;266;49.514;8.294;2024-01-06T13:12:29;9.73;;;5.10;;
562;SDS011;266;49.514;8.294;2024-01-06T13:14:57;6.37;;;5.77;;
562;SDS011;266;49.514;8.294;2024-01-06T13:17:26;7.00;;;4.83;;
562;SDS011;266;49.514;8.294;2024-01-06T13:19:55;6.70;;;5.27;;
562;SDS011;266;49.514;8.294;2024-01-06T13:22:24;6.77;;;6.10;;
562;SDS011;266;49.514;8.294;2024-01-06T13:24:52;6.23;;;5.63;;
562;SDS011;266;49.514;8.294;2024-01-06T13:27:20;5.50;;;5.00;;
562;SDS011;266;49.514;8.294;2024-01-06T13:29:48;7.73;;;5.47;;
562;SDS011;266;49.514;8.294;2024-01-06T13:32:18;7.40;;;6.03;;
562;SDS011;266;49.514;8.294;2024-01-06T13:34:46;5.40;;;4.40;;
562;SDS011;266;49.514;8.294;2024-01-06T13:37:16;6.37;;;4.97;;
562;SDS011;266;49.514;8.294;2024-01-06T13:39:44;6.70;;;5.53;;
562;SDS011;266;49.514;8.294;2024-01-06T13:42:13;4.60;;;4.20;;
562;SDS011;266;49.514;8.294;2024-01-06T13:44:44;4.53;;;4.13;;
562;SDS011;266;49.514;8.294;2024-01-06T13:47:12;4.57;;;4.17;;
562;SDS011;266;49.514;8.294;2024-01-06T13:49:40;4.80;;;4.40;;
562;SDS011;266;49.514;8.294;2024-01-06T13:52:08;6.60;;;4.80;;
562;SDS011;266;49.514;8.294;2024-01-06T13:54:38;5.33;;;4.60;;
562;SDS011;266;49.514;8.294;2024-01-06T13:57:06;4.90;;;4.40;;
562;SDS011;266;49.514;8.294;2024-01-06T13:59:34;5.27;;;4.57;;
562;SDS011;266;49.514;8.294;2024-01-06T14:02:04;5.07;;;4.67;;
562;SDS011;266;49.514;8.294;2024-01-06T14:04:37;5.07;;;4.57;;
562;SDS011;266;49.514;8.294;2024-01-06T14:07:05;5.00;;;4.50;;
562;SDS011;266;49.514;8.294;2024-01-06T14:09:33;7.60;;;5.20;;
562;SDS011;266;49.514;8.294;2024-01-06T14:12:03;7.00;;;5.90;;
562;SDS011;266;49.514;8.294;2024-01-06T14:14:32;4.73;;;4.33;;
562;SDS011;266;49.514;8.294;2024-01-06T14:17:00;6.83;;;5.30;;
562;SDS011;266;49.514;8.294;2024-01-06T14:19:28;6.63;;;5.07;;
562;SDS011;266;49.514;8.294;2024-01-06T14:21:57;5.00;;;4.50;;
562;SDS011;266;49.514;8.294;2024-01-06T14:24:25;4.50;;;4.10;;
562;SDS011;266;49.514;8.294;2024-01-06T14:26:53;4.80;;;4.30;;
562;SDS011;266;49.514;8.294;2024-01-06T14:29:23;5.10;;;4.50;;
562;SDS011;266;49.514;8.294;2024-01-06T14:31:51;4.87;;;4.27;;
562;SDS011;266;49.514;8.294;2024-01-06T14:34:20;4.83;;;3.83;;
562;SDS011;266;49.514;8.294;2024-01-06T14:36:49;4.30;;;3.60;;
562;SDS011;266;49.514;8.294;2024-01-06T14:39:17;4.13;;;3.70;;
562;SDS011;266;49.514;8.294;2024-01-06T14:41:48;4.43;;;4.03;;
562;SDS011;266;49.514;8.294;2024-01-06T14:44:16;5.63;;;4.53;;
562;SDS011;266;49.514;8.294;2024-01-06T14:46:47;4.50;;;4.20;;
562;SDS011;266;49.514;8.294;2024-01-06T14:49:17;5.00;;;4.50;;
562;SDS011;266;49.514;8.294;2024-01-06T14:51:45;5.30;;;4.87;;
562;SDS011;266;49.514;8.294;2024-01-06T14:54:13;4.97;;;4.43;;
562;SDS011;266;49.514;8.294;2024-01-06T14:56:41;4.73;;;3.97;;
562;SDS011;266;49.514;8.294;2024-01-06T14:59:09;4.50;;;4.20;;
562;SDS011;266;49.514;8.294;2024-01-06T15:01:37;4.07;;;3.73;;
562;SDS011;266;49.514;8.294;2024-01-06T15:04:06;5.00;;;3.70;;
562;SDS011;266;49.514;8.294;2024-01-06T15:06:34;4.77;;;4.37;;
562;SDS011;266;49.514;8.294;2024-01-06T15:09:02;4.97;;;3.60;;
562;SDS011;266;49.514;8.294;2024-01-06T15:11:30;4.73;;;3.70;;
562;SDS011;266;49.514;8.294;2024-01-06T15:13:58;4.07;;;3.77;;
562;SDS011;266;49.514;8.294;2024-01-06T15:16:30;6.20;;;5.60;;
562;SDS011;266;49.514;8.294;2024-01-06T15:18:58;5.30;;;4.80;;
562;SDS011;266;49.514;8.294;2024-01-06T15:21:28;5.27;;;4.80;;
562;SDS011;266;49.514;8.294;2024-01-06T15:24:00;4.50;;;4.10;;
562;SDS011;266;49.514;8.294;2024-01-06T15:26:28;7.37;;;4.70;;
562;SDS011;266;49.514;8.294;2024-01-06T15:28:56;4.23;;;3.93;;
562;SDS011;266;49.514;8.294;2024-01-06T15:31:27;4.53;;;4.07;;
562;SDS011;266;49.514;8.294;2024-01-06T15:33:56;7.93;;;5.10;;
562;SDS011;266;49.514;8.294;2024-01-06T15:36:24;3.97;;;3.60;;
562;SDS011;266;49.514;8.294;2024-01-06T15:38:53;4.47;;;4.07;;
562;SDS011;266;49.514;8.294;2024-01-06T15:41:21;3.97;;;3.57;;
562;SDS011;266;49.514;8.294;2024-01-06T15:43:49;6.47;;;3.70;;
562;SDS011;266;49.514;8.294;2024-01-06T15:46:17;6.03;;;4.30;;
562;SDS011;266;49.514;8.294;2024-01-06T15:48:46;5.20;;;4.67;;
562;SDS011;266;49.514;8.294;2024-01-06T15:51:15;6.30;;;4.90;;
562;SDS011;266;49.514;8.294;2024-01-06T15:53:43;6.07;;;4.93;;
562;SDS011;266;49.514;8.294;2024-01-06T15:56:13;6.70;;;6.10;;
562;SDS011;266;49.514;8.294;2024-01-06T15:58:41;6.03;;;5.47;;